Sibi Weather



Sibi's Current Weather

Temprature 14.22o clear sky

clear sky

Rain: 0 %

Min Temprature14.22o
Max Temprature14.22o
Humidity49
Wind Speed1.25 m/h
Sun Rise07:14:53
Sun Set17:31:02
Current Time: 14-Dec-2019 08:13:57
Lat/Lon: 29.55, 67.88




Sibi's Geo Location



Sibi's Weather Forecast

Time Overall Temp Min Temp Max Temp Humidity Wind Speed Rain
14-Dec-2019 (Sat)
11:00:00 clear sky 18.960 18.960 18.960 34 0.87 m/h 0 %
14:00:00 broken clouds 20.820 20.820 20.820 23 1.26 m/h 0 %
17:00:00 broken clouds 20.020 20.020 20.020 29 0.94 m/h 0 %
20:00:00 clear sky 17.170 17.170 17.170 37 0.71 m/h 0 %
23:00:00 clear sky 16.250 16.250 16.250 35 1.16 m/h 0 %
15-Dec-2019 (Sun)
02:00:00 clear sky 14.890 14.890 14.890 38 0.64 m/h 0 %
05:00:00 clear sky 14.100 14.100 14.100 42 0.36 m/h 0 %
08:00:00 clear sky 14.570 14.570 14.570 44 1.02 m/h 0 %
11:00:00 clear sky 18.960 18.960 18.960 29 1.76 m/h 0 %
14:00:00 clear sky 20.360 20.360 20.360 31 1.94 m/h 0 %
17:00:00 few clouds 19.860 19.860 19.860 34 1.24 m/h 0 %
20:00:00 scattered clouds 17.070 17.070 17.070 43 0.77 m/h 0 %
23:00:00 few clouds 15.870 15.870 15.870 45 0.94 m/h 0 %
16-Dec-2019 (Mon)
02:00:00 clear sky 14.910 14.910 14.910 47 1.02 m/h 0 %
05:00:00 clear sky 13.860 13.860 13.860 50 0.54 m/h 0 %
08:00:00 clear sky 14.400 14.400 14.400 49 1.04 m/h 0 %
11:00:00 clear sky 18.710 18.710 18.710 36 0.87 m/h 0 %
14:00:00 clear sky 20.360 20.360 20.360 32 1.44 m/h 0 %
17:00:00 clear sky 20.070 20.070 20.070 36 0.8 m/h 0 %
20:00:00 clear sky 17.360 17.360 17.360 43 0.99 m/h 0 %
23:00:00 clear sky 15.850 15.850 15.850 48 0.38 m/h 0 %
17-Dec-2019 (Tue)
02:00:00 clear sky 14.870 14.870 14.870 50 0.88 m/h 0 %
05:00:00 few clouds 14.400 14.400 14.400 50 0.83 m/h 0 %
08:00:00 broken clouds 14.680 14.680 14.680 50 0.42 m/h 0 %
11:00:00 scattered clouds 19.190 19.190 19.190 35 0.75 m/h 0 %
14:00:00 clear sky 20.850 20.850 20.850 31 1.41 m/h 0 %
17:00:00 clear sky 20.480 20.480 20.480 33 1.64 m/h 0 %
20:00:00 clear sky 17.410 17.410 17.410 43 0.35 m/h 0 %
23:00:00 clear sky 16.210 16.210 16.210 46 0.33 m/h 0 %
18-Dec-2019 (Wed)
02:00:00 clear sky 15.140 15.140 15.140 48 0.6 m/h 0 %
05:00:00 clear sky 14.540 14.540 14.540 49 0.45 m/h 0 %
08:00:00 clear sky 14.920 14.920 14.920 49 0.23 m/h 0 %
11:00:00 few clouds 19.770 19.770 19.770 33 0.31 m/h 0 %
14:00:00 overcast clouds 21.150 21.150 21.150 31 1.35 m/h 0 %
17:00:00 overcast clouds 20.870 20.870 20.870 34 1.04 m/h 0 %
20:00:00 broken clouds 18.270 18.270 18.270 41 1.13 m/h 0 %
23:00:00 broken clouds 16.900 16.900 16.900 44 0.77 m/h 0 %
19-Dec-2019 (Thu)
02:00:00 overcast clouds 16.980 16.980 16.980 41 1.96 m/h 0 %
05:00:00 overcast clouds 15.560 15.560 15.560 46 0.76 m/h 0 %
08:00:00 overcast clouds 16.010 16.010 16.010 45 0.16 m/h 0 %

Famous Cities (61)